Time;durP1;ratioP1;P1;durP2;ratioP2;P2;SDS_P1;SDS_P2;PMS_P1;PMS_P2;Temp;Humidity;BMP_temperature;BMP_pressure;BME280_temperature;BME280_humidity;BME280_pressure;Samples;Min_cycle;Max_cycle;Signal;HPM_P1;HPM_P2
2023/08/15 00:02:19;;;;;;;;;;;24.90;89.00;;;;;;5047554;28;19995;-80
2023/08/15 00:04:45;;;;;;;;;;;24.80;89.00;;;;;;5049403;28;20003;-80
2023/08/15 00:07:12;;;;;;;;;;;24.80;89.10;;;;;;5049563;28;19976;-79
2023/08/15 00:09:38;;;;;;;;;;;24.80;89.20;;;;;;5051195;28;19979;-78
2023/08/15 00:12:05;;;;;;;;;;;24.80;89.40;;;;;;5049570;28;19980;-79
2023/08/15 00:14:32;;;;;;;;;;;24.70;89.30;;;;;;5047860;28;20204;-79
2023/08/15 00:16:58;;;;;;;;;;;24.70;89.40;;;;;;5047188;28;19999;-80
2023/08/15 00:19:26;;;;;;;;;;;24.70;89.40;;;;;;5045905;28;20029;-79
2023/08/15 00:21:53;;;;;;;;;;;24.70;89.50;;;;;;5048861;28;19987;-79
2023/08/15 00:24:19;;;;;;;;;;;24.70;89.50;;;;;;5052212;28;19975;-79
2023/08/15 00:26:46;;;;;;;;;;;24.70;89.70;;;;;;5050903;28;21374;-78
2023/08/15 00:29:12;;;;;;;;;;;24.60;89.70;;;;;;5052581;28;19982;-78
2023/08/15 00:31:39;;;;;;;;;;;24.60;89.80;;;;;;5052312;28;20003;-79
2023/08/15 00:34:05;;;;;;;;;;;24.60;89.80;;;;;;5049841;28;19998;-79
2023/08/15 00:36:33;;;;;;;;;;;24.50;89.80;;;;;;5056660;28;20078;-80
2023/08/15 00:39:02;;;;;;;;;;;24.50;89.90;;;;;;5058320;28;19980;-80
2023/08/15 00:41:29;;;;;;;;;;;24.50;90.00;;;;;;5060306;28;20671;-78
2023/08/15 00:43:55;;;;;;;;;;;24.50;90.00;;;;;;5057842;28;19983;-77
2023/08/15 00:46:22;;;;;;;;;;;24.40;90.00;;;;;;5053043;28;20410;-78
2023/08/15 00:48:49;;;;;;;;;;;24.40;90.10;;;;;;5052231;28;19979;-80
2023/08/15 00:51:16;;;;;;;;;;;24.40;90.10;;;;;;5047564;28;19976;-80
2023/08/15 00:53:44;;;;;;;;;;;24.40;90.10;;;;;;5051723;28;20575;-77
2023/08/15 00:56:11;;;;;;;;;;;24.40;90.10;;;;;;5052054;28;19991;-79
2023/08/15 00:58:38;;;;;;;;;;;24.30;90.10;;;;;;5050963;28;19981;-78
2023/08/15 01:01:04;;;;;;;;;;;24.30;90.10;;;;;;5057138;28;19995;-80
2023/08/15 01:03:31;;;;;;;;;;;24.30;90.20;;;;;;5049669;28;19979;-81
2023/08/15 01:05:57;;;;;;;;;;;24.30;90.20;;;;;;5057834;28;19991;-77
2023/08/15 01:08:24;;;;;;;;;;;24.20;90.20;;;;;;5050739;28;19987;-76
2023/08/15 01:10:52;;;;;;;;;;;24.20;90.30;;;;;;5045661;28;19983;-80
2023/08/15 01:13:23;;;;;;;;;;;24.20;90.30;;;;;;5047479;28;19976;-79
2023/08/15 01:15:50;;;;;;;;;;;24.20;90.40;;;;;;5047098;28;19999;-80
2023/08/15 01:18:19;;;;;;;;;;;24.20;90.40;;;;;;5043709;28;20022;-79
2023/08/15 01:20:47;;;;;;;;;;;24.10;90.40;;;;;;5044688;28;19979;-79
2023/08/15 01:23:15;;;;;;;;;;;24.10;90.40;;;;;;5049322;28;19979;-80
2023/08/15 01:25:43;;;;;;;;;;;24.10;90.50;;;;;;5049247;28;19999;-80
2023/08/15 01:28:12;;;;;;;;;;;24.00;90.50;;;;;;5050636;28;19983;-80
2023/08/15 01:30:41;;;;;;;;;;;24.00;90.60;;;;;;5044687;28;19996;-78
2023/08/15 01:33:10;;;;;;;;;;;24.00;90.60;;;;;;5047736;28;19987;-79
2023/08/15 01:35:38;;;;;;;;;;;24.00;90.70;;;;;;5046508;28;19999;-80
2023/08/15 01:38:08;;;;;;;;;;;24.00;90.70;;;;;;5045460;28;19979;-80
2023/08/15 01:40:36;;;;;;;;;;;24.00;90.80;;;;;;5041786;28;19980;-78
2023/08/15 01:43:05;;;;;;;;;;;23.90;90.80;;;;;;5045526;28;19975;-80
2023/08/15 01:45:32;;;;;;;;;;;23.90;90.80;;;;;;5043425;28;20003;-79
2023/08/15 01:47:58;;;;;;;;;;;23.90;90.80;;;;;;5048532;28;19982;-80
2023/08/15 01:50:25;;;;;;;;;;;23.90;90.80;;;;;;5047579;28;19991;-79
2023/08/15 01:55:55;;;;;;;;;;;23.80;90.80;;;;;;5036907;28;20556;-77
2023/08/15 01:58:22;;;;;;;;;;;23.80;90.90;;;;;;5050262;28;20437;-80
2023/08/15 02:00:49;;;;;;;;;;;23.80;90.90;;;;;;5049804;28;19996;-80
2023/08/15 02:03:15;;;;;;;;;;;23.80;91.00;;;;;;5046855;28;19979;-79
2023/08/15 02:05:41;;;;;;;;;;;23.80;91.00;;;;;;5050684;28;20373;-79
2023/08/15 02:08:08;;;;;;;;;;;23.80;91.00;;;;;;5051301;28;19980;-78
2023/08/15 02:10:34;;;;;;;;;;;23.70;91.00;;;;;;5046452;28;19987;-77
2023/08/15 02:13:01;;;;;;;;;;;23.70;91.10;;;;;;5051164;28;19976;-79
2023/08/15 02:15:29;;;;;;;;;;;23.70;91.10;;;;;;5044574;28;20007;-79
2023/08/15 02:17:55;;;;;;;;;;;23.70;91.10;;;;;;5047480;28;19983;-79
2023/08/15 02:20:22;;;;;;;;;;;23.70;91.10;;;;;;5050214;28;19983;-80
2023/08/15 02:22:48;;;;;;;;;;;23.60;91.10;;;;;;5048781;28;19991;-80
2023/08/15 02:25:15;;;;;;;;;;;23.60;91.10;;;;;;5047206;28;19996;-79
2023/08/15 02:27:41;;;;;;;;;;;23.60;91.20;;;;;;5042259;28;19980;-79
2023/08/15 02:30:09;;;;;;;;;;;23.60;91.20;;;;;;5044015;28;19982;-78
2023/08/15 02:32:37;;;;;;;;;;;23.60;91.60;;;;;;5047470;28;20070;-79
2023/08/15 02:35:04;;;;;;;;;;;23.50;91.20;;;;;;5045089;28;19995;-80
2023/08/15 02:37:30;;;;;;;;;;;23.50;91.30;;;;;;5054767;28;19982;-79
2023/08/15 02:39:57;;;;;;;;;;;23.50;91.30;;;;;;5052031;28;19987;-79
2023/08/15 02:42:23;;;;;;;;;;;23.50;91.40;;;;;;5059039;28;20054;-78
2023/08/15 02:44:50;;;;;;;;;;;23.50;91.50;;;;;;5053910;28;19992;-77
2023/08/15 02:47:16;;;;;;;;;;;23.50;91.50;;;;;;5052338;28;19992;-79
2023/08/15 02:49:44;;;;;;;;;;;23.50;91.50;;;;;;5055688;28;20560;-79
2023/08/15 02:52:11;;;;;;;;;;;23.40;91.50;;;;;;5060305;28;19986;-79
2023/08/15 02:54:38;;;;;;;;;;;23.40;91.50;;;;;;5054861;28;20049;-78
2023/08/15 02:57:04;;;;;;;;;;;23.40;91.60;;;;;;5033126;28;19983;-80
2023/08/15 02:59:31;;;;;;;;;;;23.40;91.60;;;;;;5024335;28;19976;-76
2023/08/15 03:01:57;;;;;;;;;;;23.40;91.60;;;;;;5021207;28;20181;-76
2023/08/15 03:04:24;;;;;;;;;;;23.40;91.60;;;;;;5021461;28;20289;-76
2023/08/15 03:06:52;;;;;;;;;;;23.40;91.60;;;;;;5023226;28;19987;-78
2023/08/15 03:09:18;;;;;;;;;;;23.40;91.60;;;;;;5021131;28;19996;-78
2023/08/15 03:11:45;;;;;;;;;;;23.40;91.70;;;;;;5020092;28;19980;-77
2023/08/15 03:14:11;;;;;;;;;;;23.30;91.70;;;;;;5020275;28;19983;-77
2023/08/15 03:16:38;;;;;;;;;;;23.30;91.70;;;;;;5021005;28;20003;-77
2023/08/15 03:19:04;;;;;;;;;;;23.30;91.70;;;;;;5018856;28;19980;-79
2023/08/15 03:21:31;;;;;;;;;;;23.30;91.80;;;;;;5020972;28;19982;-79
2023/08/15 03:23:59;;;;;;;;;;;23.30;91.80;;;;;;5021643;28;19976;-77
2023/08/15 03:26:28;;;;;;;;;;;23.20;91.80;;;;;;5020784;28;20002;-78
2023/08/15 03:28:56;;;;;;;;;;;23.30;91.90;;;;;;5021642;28;20039;-80
2023/08/15 03:31:23;;;;;;;;;;;23.20;91.90;;;;;;5021332;28;19999;-78
2023/08/15 03:33:50;;;;;;;;;;;23.20;91.90;;;;;;5021105;28;19990;-78
2023/08/15 03:36:16;;;;;;;;;;;23.20;92.00;;;;;;5021061;28;20000;-78
2023/08/15 03:38:43;;;;;;;;;;;23.20;92.00;;;;;;5020300;28;19977;-78
2023/08/15 03:41:11;;;;;;;;;;;23.20;92.00;;;;;;5021529;28;19975;-79
2023/08/15 03:43:37;;;;;;;;;;;23.20;92.00;;;;;;5020834;28;19979;-79
2023/08/15 03:46:04;;;;;;;;;;;23.10;92.00;;;;;;5020490;28;20011;-78
2023/08/15 03:48:31;;;;;;;;;;;23.10;92.10;;;;;;5020953;28;19987;-79
2023/08/15 03:50:58;;;;;;;;;;;23.10;92.10;;;;;;5019715;28;19976;-80
2023/08/15 03:53:24;;;;;;;;;;;23.10;92.10;;;;;;5021603;28;19991;-77
2023/08/15 03:55:52;;;;;;;;;;;23.10;92.10;;;;;;5020842;28;20000;-78
2023/08/15 03:58:20;;;;;;;;;;;23.10;92.20;;;;;;5044488;28;19998;-79
2023/08/15 04:00:47;;;;;;;;;;;23.10;92.20;;;;;;5049247;28;20110;-79
2023/08/15 04:03:13;;;;;;;;;;;23.10;92.20;;;;;;5041881;28;19984;-77
2023/08/15 04:05:40;;;;;;;;;;;23.00;92.20;;;;;;5045713;28;20007;-78
2023/08/15 04:08:06;;;;;;;;;;;23.00;92.20;;;;;;5049478;28;19999;-79
2023/08/15 04:10:39;;;;;;;;;;;23.00;92.20;;;;;;5051306;28;20075;-79
2023/08/15 04:13:06;;;;;;;;;;;23.00;92.20;;;;;;5050651;28;19983;-79
2023/08/15 04:15:33;;;;;;;;;;;23.00;92.30;;;;;;5048706;28;20463;-80
2023/08/15 04:18:00;;;;;;;;;;;23.00;92.30;;;;;;5049623;28;20417;-79
2023/08/15 04:20:27;;;;;;;;;;;23.00;92.30;;;;;;5047457;28;20106;-78
2023/08/15 04:22:53;;;;;;;;;;;23.00;92.30;;;;;;5051685;28;19986;-79
2023/08/15 04:25:20;;;;;;;;;;;23.00;92.40;;;;;;5048935;28;20793;-80
2023/08/15 04:27:46;;;;;;;;;;;23.00;92.40;;;;;;5051946;28;19984;-80
2023/08/15 04:30:13;;;;;;;;;;;22.90;92.40;;;;;;5050498;28;19976;-79
2023/08/15 04:32:41;;;;;;;;;;;22.90;92.40;;;;;;5052707;28;20424;-78
2023/08/15 04:35:09;;;;;;;;;;;22.90;92.40;;;;;;5051635;28;20043;-79
2023/08/15 04:37:35;;;;;;;;;;;22.90;92.50;;;;;;5057172;28;20037;-78
2023/08/15 04:40:02;;;;;;;;;;;22.80;92.50;;;;;;5051685;28;20021;-79
2023/08/15 04:42:28;;;;;;;;;;;22.90;92.50;;;;;;5051524;28;20372;-78
2023/08/15 04:44:55;;;;;;;;;;;22.80;92.50;;;;;;5048434;28;20002;-79
2023/08/15 04:47:21;;;;;;;;;;;22.80;92.60;;;;;;5051044;28;20003;-78
2023/08/15 04:49:49;;;;;;;;;;;22.80;92.60;;;;;;5059951;28;19983;-79
2023/08/15 04:52:16;;;;;;;;;;;22.80;92.60;;;;;;5052678;28;19975;-79
2023/08/15 04:54:43;;;;;;;;;;;22.80;92.60;;;;;;5054679;28;19979;-79
2023/08/15 04:57:09;;;;;;;;;;;22.80;92.60;;;;;;5046028;28;20003;-78
2023/08/15 04:59:36;;;;;;;;;;;22.80;92.60;;;;;;5059948;28;20325;-79
2023/08/15 05:02:02;;;;;;;;;;;22.80;92.70;;;;;;5050109;28;20469;-78
2023/08/15 05:04:29;;;;;;;;;;;22.70;92.60;;;;;;5051085;28;20170;-79
2023/08/15 05:06:57;;;;;;;;;;;22.80;92.70;;;;;;5050990;28;20054;-78
2023/08/15 05:09:24;;;;;;;;;;;22.80;92.70;;;;;;5044001;28;19980;-79
2023/08/15 05:11:50;;;;;;;;;;;22.80;92.70;;;;;;5044870;28;19979;-80
2023/08/15 05:14:17;;;;;;;;;;;22.70;92.70;;;;;;5046484;28;19979;-79
2023/08/15 05:16:43;;;;;;;;;;;22.70;92.70;;;;;;5041847;28;20008;-79
2023/08/15 05:19:10;;;;;;;;;;;22.70;92.80;;;;;;5041089;28;19971;-78
2023/08/15 05:21:37;;;;;;;;;;;22.70;92.80;;;;;;5047946;28;19968;-79
2023/08/15 05:24:05;;;;;;;;;;;22.70;92.80;;;;;;5049098;28;19980;-78
2023/08/15 05:26:31;;;;;;;;;;;22.70;92.80;;;;;;5043651;28;20003;-79
2023/08/15 05:28:58;;;;;;;;;;;22.70;92.90;;;;;;5049482;28;19980;-78
2023/08/15 05:31:24;;;;;;;;;;;22.70;92.90;;;;;;5044052;28;19995;-78
2023/08/15 05:33:51;;;;;;;;;;;22.60;92.90;;;;;;5046965;28;19980;-79
2023/08/15 05:36:18;;;;;;;;;;;22.70;92.90;;;;;;5045637;28;19996;-78
2023/08/15 05:38:44;;;;;;;;;;;22.60;93.00;;;;;;5047418;28;19991;-78
2023/08/15 05:41:12;;;;;;;;;;;22.60;93.00;;;;;;5043930;28;19980;-79
2023/08/15 05:43:38;;;;;;;;;;;22.60;93.00;;;;;;5046325;28;19976;-78
2023/08/15 05:46:05;;;;;;;;;;;22.60;93.00;;;;;;5049866;28;20000;-78
2023/08/15 05:48:32;;;;;;;;;;;22.60;93.10;;;;;;5045976;28;19983;-76
2023/08/15 05:50:58;;;;;;;;;;;22.60;93.10;;;;;;5050728;28;19991;-77
2023/08/15 05:53:25;;;;;;;;;;;22.60;93.10;;;;;;5046610;28;19979;-78
2023/08/15 05:55:51;;;;;;;;;;;22.60;93.10;;;;;;5045276;28;19991;-79
2023/08/15 05:58:19;;;;;;;;;;;22.60;93.10;;;;;;5044107;28;19983;-78
2023/08/15 06:00:46;;;;;;;;;;;22.60;93.20;;;;;;5047299;28;19996;-78
2023/08/15 06:03:12;;;;;;;;;;;22.60;93.30;;;;;;5047149;28;19976;-79
2023/08/15 06:05:39;;;;;;;;;;;22.60;93.40;;;;;;5052484;28;19999;-80
2023/08/15 06:08:05;;;;;;;;;;;22.60;93.40;;;;;;5051577;28;19976;-78
2023/08/15 06:10:32;;;;;;;;;;;22.60;93.50;;;;;;5046010;28;21082;-79
2023/08/15 06:12:58;;;;;;;;;;;22.60;93.50;;;;;;5047745;28;20411;-79
2023/08/15 06:15:26;;;;;;;;;;;22.60;93.50;;;;;;5049810;28;20003;-78
2023/08/15 06:17:53;;;;;;;;;;;22.60;93.50;;;;;;5051074;28;19991;-78
2023/08/15 06:20:20;;;;;;;;;;;22.60;93.60;;;;;;5053033;28;19983;-79
2023/08/15 06:22:46;;;;;;;;;;;22.60;93.60;;;;;;5051631;28;20073;-78
2023/08/15 06:25:13;;;;;;;;;;;22.60;93.60;;;;;;5050664;28;20007;-80
2023/08/15 06:27:40;;;;;;;;;;;22.60;93.60;;;;;;5049773;28;19990;-80
2023/08/15 06:30:07;;;;;;;;;;;22.60;93.60;;;;;;5059113;28;20393;-78
2023/08/15 06:32:35;;;;;;;;;;;22.60;93.60;;;;;;5055034;28;19976;-79
2023/08/15 06:35:02;;;;;;;;;;;22.60;93.60;;;;;;5057980;28;20459;-79
2023/08/15 06:37:29;;;;;;;;;;;22.60;93.50;;;;;;5054639;28;19998;-80
2023/08/15 06:39:55;;;;;;;;;;;22.60;93.50;;;;;;5058327;28;19983;-78
2023/08/15 06:42:22;;;;;;;;;;;22.60;93.50;;;;;;5050344;28;19976;-80
2023/08/15 06:44:48;;;;;;;;;;;22.60;93.60;;;;;;5058444;28;20013;-80
2023/08/15 06:47:15;;;;;;;;;;;22.60;93.60;;;;;;5057189;28;19992;-79
2023/08/15 06:49:43;;;;;;;;;;;22.60;93.60;;;;;;5054227;28;20454;-78
2023/08/15 06:52:09;;;;;;;;;;;22.60;93.70;;;;;;5053548;28;19982;-79
2023/08/15 06:54:36;;;;;;;;;;;22.60;93.60;;;;;;5053340;28;19975;-80
2023/08/15 06:57:03;;;;;;;;;;;22.60;93.70;;;;;;5053409;28;20038;-80
2023/08/15 06:59:35;;;;;;;;;;;22.60;93.60;;;;;;5053551;28;20027;-80
2023/08/15 07:02:01;;;;;;;;;;;22.60;93.60;;;;;;5048378;28;20011;-77
2023/08/15 07:04:28;;;;;;;;;;;22.70;93.60;;;;;;5052281;28;19980;-78
2023/08/15 07:06:57;;;;;;;;;;;22.60;93.60;;;;;;5053650;28;20005;-79
2023/08/15 07:09:24;;;;;;;;;;;22.70;93.60;;;;;;5056073;28;20045;-80
2023/08/15 07:11:51;;;;;;;;;;;22.70;93.50;;;;;;5048977;28;19981;-83
2023/08/15 07:14:17;;;;;;;;;;;22.70;93.50;;;;;;5050595;28;20011;-82
2023/08/15 07:16:44;;;;;;;;;;;22.70;93.60;;;;;;5046772;28;19996;-81
2023/08/15 07:19:10;;;;;;;;;;;22.70;93.50;;;;;;5049271;28;19987;-82
2023/08/15 07:21:37;;;;;;;;;;;22.60;93.50;;;;;;5047595;28;19980;-81
2023/08/15 07:24:05;;;;;;;;;;;22.70;93.50;;;;;;5046541;28;19975;-82
2023/08/15 07:26:32;;;;;;;;;;;22.70;93.50;;;;;;5050392;28;20000;-81
2023/08/15 07:28:58;;;;;;;;;;;22.70;93.50;;;;;;5052048;28;20419;-83
2023/08/15 07:31:25;;;;;;;;;;;22.70;93.60;;;;;;5046154;28;19996;-84
2023/08/15 07:33:52;;;;;;;;;;;22.70;93.60;;;;;;5050621;28;20102;-80
2023/08/15 07:36:18;;;;;;;;;;;22.70;93.60;;;;;;5049131;28;20007;-81
2023/08/15 07:38:45;;;;;;;;;;;22.70;93.60;;;;;;5045785;28;19986;-85
2023/08/15 07:41:12;;;;;;;;;;;22.70;93.60;;;;;;5047719;28;19976;-83
2023/08/15 07:43:39;;;;;;;;;;;22.70;93.60;;;;;;5050164;28;19979;-82
2023/08/15 07:46:05;;;;;;;;;;;22.80;93.70;;;;;;5050232;28;20003;-80
2023/08/15 07:48:32;;;;;;;;;;;22.80;93.70;;;;;;5048099;28;19980;-81
2023/08/15 07:50:59;;;;;;;;;;;22.80;93.60;;;;;;5048009;28;19983;-80
2023/08/15 07:53:25;;;;;;;;;;;22.80;93.60;;;;;;5047895;28;20004;-81
2023/08/15 07:55:52;;;;;;;;;;;22.80;93.60;;;;;;5052136;28;20003;-83
2023/08/15 07:58:20;;;;;;;;;;;22.80;93.50;;;;;;5049372;28;19976;-81
2023/08/15 08:00:47;;;;;;;;;;;23.00;93.80;;;;;;5049878;28;20087;-81
2023/08/15 08:03:13;;;;;;;;;;;23.20;93.70;;;;;;5054566;28;20441;-81
2023/08/15 08:05:40;;;;;;;;;;;23.40;93.40;;;;;;5057811;28;19928;-81
2023/08/15 08:08:06;;;;;;;;;;;23.30;93.30;;;;;;5052969;28;19929;-81
2023/08/15 08:10:33;;;;;;;;;;;23.30;93.40;;;;;;5032591;28;19939;-82
2023/08/15 08:13:00;;;;;;;;;;;23.30;93.40;;;;;;5045074;28;19932;-78
2023/08/15 08:15:28;;;;;;;;;;;23.20;93.50;;;;;;5045469;28;19996;-79
2023/08/15 08:17:55;;;;;;;;;;;23.30;93.50;;;;;;5049647;28;19929;-81
2023/08/15 08:20:21;;;;;;;;;;;23.20;93.50;;;;;;5047335;28;19928;-81
2023/08/15 08:22:48;;;;;;;;;;;23.20;93.50;;;;;;5058833;28;19928;-81
2023/08/15 08:25:16;;;;;;;;;;;23.20;93.50;;;;;;5050165;28;20042;-81
2023/08/15 08:27:42;;;;;;;;;;;23.20;93.40;;;;;;5045996;28;19925;-80
2023/08/15 08:30:10;;;;;;;;;;;23.30;93.40;;;;;;5053589;28;19939;-77
2023/08/15 08:32:37;;;;;;;;;;;23.30;93.40;;;;;;5056663;28;19936;-79
2023/08/15 08:35:05;;;;;;;;;;;23.30;93.40;;;;;;5054662;28;20060;-78
2023/08/15 08:37:32;;;;;;;;;;;23.30;93.40;;;;;;5051137;28;19929;-78
2023/08/15 08:39:58;;;;;;;;;;;23.30;93.40;;;;;;5048387;28;19929;-78
2023/08/15 08:42:25;;;;;;;;;;;23.40;93.40;;;;;;5047849;28;19928;-75
2023/08/15 08:44:52;;;;;;;;;;;23.40;93.30;;;;;;5047338;28;19936;-78
2023/08/15 08:47:20;;;;;;;;;;;23.40;93.30;;;;;;5059370;28;19928;-78
2023/08/15 08:49:48;;;;;;;;;;;23.40;93.30;;;;;;5043929;28;19929;-79
2023/08/15 08:52:16;;;;;;;;;;;23.50;93.30;;;;;;5041368;28;19928;-78
2023/08/15 08:54:43;;;;;;;;;;;23.70;92.80;;;;;;5043261;28;19940;-77
2023/08/15 08:57:09;;;;;;;;;;;23.80;92.80;;;;;;5042181;28;19933;-78
2023/08/15 08:59:37;;;;;;;;;;;23.90;92.70;;;;;;5043830;28;19940;-78
2023/08/15 09:02:04;;;;;;;;;;;24.00;92.60;;;;;;5047198;28;19933;-80
2023/08/15 09:04:31;;;;;;;;;;;24.00;92.50;;;;;;5034313;28;20487;-72
2023/08/15 09:06:59;;;;;;;;;;;24.10;92.40;;;;;;5042035;28;19928;-74
2023/08/15 09:09:25;;;;;;;;;;;24.10;92.30;;;;;;5046167;28;19928;-73
2023/08/15 09:11:52;;;;;;;;;;;24.20;92.20;;;;;;5044420;28;19939;-73
2023/08/15 09:14:18;;;;;;;;;;;24.20;92.20;;;;;;5047206;28;19928;-73
2023/08/15 09:16:48;;;;;;;;;;;24.30;92.10;;;;;;5045216;28;20593;-72
2023/08/15 09:19:15;;;;;;;;;;;24.30;92.10;;;;;;5044741;28;20027;-72
2023/08/15 09:21:42;;;;;;;;;;;24.30;92.00;;;;;;5042971;28;19955;-72
2023/08/15 09:24:10;;;;;;;;;;;24.40;92.00;;;;;;5044744;28;19929;-73
2023/08/15 09:26:38;;;;;;;;;;;24.40;92.00;;;;;;5041164;28;20659;-72
2023/08/15 09:29:05;;;;;;;;;;;24.50;91.90;;;;;;5048572;28;19947;-72
2023/08/15 09:31:31;;;;;;;;;;;24.50;91.90;;;;;;5045408;28;19932;-72
2023/08/15 09:33:58;;;;;;;;;;;24.50;91.90;;;;;;5042530;28;19932;-72
2023/08/15 09:36:25;;;;;;;;;;;24.50;91.80;;;;;;5044380;28;20709;-73
2023/08/15 09:38:52;;;;;;;;;;;24.60;91.80;;;;;;5042406;28;21455;-72
2023/08/15 09:41:24;;;;;;;;;;;24.60;91.70;;;;;;5040427;28;19937;-72
2023/08/15 09:43:51;;;;;;;;;;;24.60;91.70;;;;;;5045167;28;20325;-72
2023/08/15 09:46:18;;;;;;;;;;;24.70;91.70;;;;;;5045657;28;20015;-73
2023/08/15 09:48:45;;;;;;;;;;;24.70;91.60;;;;;;5043704;28;19940;-72
2023/08/15 09:51:14;;;;;;;;;;;24.70;91.60;;;;;;5043022;28;19978;-73
2023/08/15 09:53:42;;;;;;;;;;;24.80;91.60;;;;;;5045692;28;19939;-71
2023/08/15 09:56:09;;;;;;;;;;;24.90;91.50;;;;;;5042915;28;19937;-73
2023/08/15 09:58:37;;;;;;;;;;;24.90;91.40;;;;;;5032974;28;20822;-77
2023/08/15 10:01:04;;;;;;;;;;;24.90;91.40;;;;;;5045374;28;19932;-76
2023/08/15 10:03:34;;;;;;;;;;;25.00;91.30;;;;;;5037390;28;19929;-75
2023/08/15 10:06:02;;;;;;;;;;;25.00;91.20;;;;;;5045768;28;19986;-77
2023/08/15 10:08:29;;;;;;;;;;;25.10;91.50;;;;;;5042585;28;20019;-77
2023/08/15 10:10:57;;;;;;;;;;;25.10;91.10;;;;;;5043960;28;19932;-77
2023/08/15 10:13:25;;;;;;;;;;;25.20;91.00;;;;;;5041761;28;19976;-74
2023/08/15 10:15:53;;;;;;;;;;;25.20;90.90;;;;;;5044037;28;19932;-77
2023/08/15 10:18:20;;;;;;;;;;;25.30;90.90;;;;;;5041612;28;20228;-77
2023/08/15 10:20:50;;;;;;;;;;;25.30;90.90;;;;;;5041685;28;19940;-77
2023/08/15 10:23:23;;;;;;;;;;;25.30;90.90;;;;;;5042191;28;20417;-77
2023/08/15 10:25:52;;;;;;;;;;;25.40;91.00;;;;;;5040604;28;20497;-76
2023/08/15 10:28:19;;;;;;;;;;;25.40;90.90;;;;;;5042220;28;19928;-77
2023/08/15 10:30:46;;;;;;;;;;;25.40;90.90;;;;;;5038313;28;19941;-77
2023/08/15 10:33:15;;;;;;;;;;;25.40;90.90;;;;;;5041521;28;19939;-76
2023/08/15 10:35:43;;;;;;;;;;;25.40;90.80;;;;;;5042088;28;20558;-76
2023/08/15 10:38:13;;;;;;;;;;;25.40;90.80;;;;;;5043348;28;19948;-76
2023/08/15 10:40:41;;;;;;;;;;;25.40;90.80;;;;;;5035243;28;19933;-77
2023/08/15 10:43:11;;;;;;;;;;;25.40;90.70;;;;;;5038784;28;20000;-76
2023/08/15 10:45:40;;;;;;;;;;;25.50;90.70;;;;;;5039160;28;19999;-76
2023/08/15 10:48:07;;;;;;;;;;;25.50;90.60;;;;;;5041903;28;19975;-76
2023/08/15 10:50:36;;;;;;;;;;;25.60;90.60;;;;;;5040827;28;20082;-77
2023/08/15 10:53:03;;;;;;;;;;;25.60;90.30;;;;;;5039110;28;19995;-78
2023/08/15 10:55:32;;;;;;;;;;;25.60;90.10;;;;;;5043613;28;20386;-77
2023/08/15 10:57:58;;;;;;;;;;;25.70;90.20;;;;;;5034856;28;19995;-77
2023/08/15 11:00:26;;;;;;;;;;;25.70;90.10;;;;;;5043719;28;19976;-79
2023/08/15 11:02:52;;;;;;;;;;;25.70;90.00;;;;;;5043943;28;20382;-77
2023/08/15 11:05:21;;;;;;;;;;;25.70;90.30;;;;;;5048111;28;21366;-77
2023/08/15 11:07:49;;;;;;;;;;;25.80;89.80;;;;;;5048528;28;20745;-78
2023/08/15 11:10:15;;;;;;;;;;;25.80;89.50;;;;;;5046780;28;19983;-78
2023/08/15 11:12:46;;;;;;;;;;;25.80;89.20;;;;;;5043872;28;20456;-76
2023/08/15 11:15:13;;;;;;;;;;;25.80;89.00;;;;;;5041013;28;20022;-73
2023/08/15 11:17:39;;;;;;;;;;;25.90;88.90;;;;;;5047338;28;20171;-74
2023/08/15 11:20:07;;;;;;;;;;;25.90;88.80;;;;;;5043563;28;19988;-71
2023/08/15 11:22:33;;;;;;;;;;;25.90;88.60;;;;;;5048814;28;19975;-74
2023/08/15 11:25:02;;;;;;;;;;;25.90;88.50;;;;;;5047986;28;20002;-72
2023/08/15 11:27:29;;;;;;;;;;;26.00;88.60;;;;;;5045569;28;19980;-72
2023/08/15 11:29:58;;;;;;;;;;;26.00;88.50;;;;;;5040162;28;19983;-72
2023/08/15 11:32:25;;;;;;;;;;;26.00;87.80;;;;;;5041987;28;21561;-73
2023/08/15 11:34:52;;;;;;;;;;;26.10;87.80;;;;;;5044487;28;19992;-73
2023/08/15 11:37:20;;;;;;;;;;;26.20;87.80;;;;;;5040012;28;19987;-73
2023/08/15 11:39:51;;;;;;;;;;;26.20;87.40;;;;;;5045181;28;20356;-75
2023/08/15 11:42:19;;;;;;;;;;;26.30;87.00;;;;;;5043200;28;19975;-70
2023/08/15 11:44:46;;;;;;;;;;;26.30;86.70;;;;;;5044208;28;19980;-70
2023/08/15 11:47:14;;;;;;;;;;;26.40;86.60;;;;;;5043705;28;19995;-72
2023/08/15 11:49:40;;;;;;;;;;;26.40;86.50;;;;;;5045299;28;19995;-72
2023/08/15 11:52:07;;;;;;;;;;;26.50;86.40;;;;;;5042543;28;19991;-74
2023/08/15 11:54:34;;;;;;;;;;;26.50;86.20;;;;;;5044949;28;20349;-74
2023/08/15 11:57:00;;;;;;;;;;;26.60;86.10;;;;;;5041197;28;20362;-73
2023/08/15 11:59:32;;;;;;;;;;;26.60;85.90;;;;;;5043058;28;20024;-74
2023/08/15 12:01:58;;;;;;;;;;;26.60;85.70;;;;;;5046069;28;20038;-73
2023/08/15 12:04:25;;;;;;;;;;;26.70;85.50;;;;;;5043644;28;19999;-80
2023/08/15 12:06:51;;;;;;;;;;;26.70;85.30;;;;;;5045443;28;19986;-80
2023/08/15 12:09:18;;;;;;;;;;;26.70;84.60;;;;;;5050569;28;19982;-81
2023/08/15 12:11:45;;;;;;;;;;;26.70;84.60;;;;;;5047092;28;19980;-80
2023/08/15 12:14:18;;;;;;;;;;;26.80;84.70;;;;;;5045033;28;19976;-83
2023/08/15 12:16:47;;;;;;;;;;;26.80;83.60;;;;;;5043884;28;20078;-85
2023/08/15 12:19:13;;;;;;;;;;;26.90;83.60;;;;;;5044360;28;20043;-80
2023/08/15 12:21:40;;;;;;;;;;;26.90;83.50;;;;;;5045054;28;20512;-78
2023/08/15 12:24:07;;;;;;;;;;;27.00;82.10;;;;;;5041500;28;19979;-80
2023/08/15 12:26:34;;;;;;;;;;;27.10;81.50;;;;;;5042241;28;19996;-82
2023/08/15 12:29:00;;;;;;;;;;;27.10;81.50;;;;;;5048786;28;20023;-81
2023/08/15 12:31:27;;;;;;;;;;;27.20;81.50;;;;;;5041668;28;19999;-81
2023/08/15 12:33:55;;;;;;;;;;;27.30;81.40;;;;;;5043687;28;19995;-82
2023/08/15 12:36:21;;;;;;;;;;;27.30;81.20;;;;;;5048482;28;20038;-81
2023/08/15 12:38:48;;;;;;;;;;;27.40;81.50;;;;;;5041675;28;20900;-81
2023/08/15 12:41:15;;;;;;;;;;;27.50;81.30;;;;;;5042434;28;19979;-73
2023/08/15 12:43:41;;;;;;;;;;;27.50;80.20;;;;;;5043859;28;20001;-74
2023/08/15 12:46:08;;;;;;;;;;;27.60;80.40;;;;;;5041238;28;19999;-75
2023/08/15 12:48:34;;;;;;;;;;;27.60;80.10;;;;;;5042977;28;19975;-73
2023/08/15 12:51:02;;;;;;;;;;;27.70;80.30;;;;;;5044589;28;19997;-73
2023/08/15 12:53:29;;;;;;;;;;;27.70;80.40;;;;;;5044546;28;19982;-74
2023/08/15 12:55:55;;;;;;;;;;;27.70;80.40;;;;;;5045405;28;20003;-73
2023/08/15 12:58:22;;;;;;;;;;;27.80;80.20;;;;;;5047902;28;20003;-74
2023/08/15 13:00:48;;;;;;;;;;;27.80;80.10;;;;;;5044466;28;19996;-74
2023/08/15 13:03:15;;;;;;;;;;;27.80;79.30;;;;;;5044534;28;20014;-75
2023/08/15 13:05:41;;;;;;;;;;;27.80;79.10;;;;;;5043975;28;19995;-70
2023/08/15 13:08:09;;;;;;;;;;;27.90;78.80;;;;;;5048404;28;19997;-74
2023/08/15 13:10:36;;;;;;;;;;;27.90;79.40;;;;;;5045623;28;20006;-73
2023/08/15 13:13:03;;;;;;;;;;;28.00;78.30;;;;;;5043763;28;19980;-73
2023/08/15 13:15:29;;;;;;;;;;;28.00;77.40;;;;;;5047897;28;20022;-73
2023/08/15 13:17:56;;;;;;;;;;;28.10;78.00;;;;;;5041629;28;19998;-73
2023/08/15 13:20:22;;;;;;;;;;;28.10;77.40;;;;;;5044305;28;20460;-73
2023/08/15 13:22:49;;;;;;;;;;;28.20;77.20;;;;;;5039721;28;19980;-75
2023/08/15 13:25:17;;;;;;;;;;;28.20;77.10;;;;;;5043888;28;20491;-75
2023/08/15 13:27:43;;;;;;;;;;;28.30;76.60;;;;;;5045118;28;19987;-74
2023/08/15 13:30:10;;;;;;;;;;;28.30;76.40;;;;;;5044236;28;20086;-72
2023/08/15 13:32:37;;;;;;;;;;;28.40;75.40;;;;;;5052126;28;19998;-74
2023/08/15 13:35:04;;;;;;;;;;;28.40;75.40;;;;;;5042944;28;20435;-73
2023/08/15 13:37:31;;;;;;;;;;;28.40;75.30;;;;;;5043214;28;19975;-74
2023/08/15 13:39:59;;;;;;;;;;;28.40;74.70;;;;;;5041527;28;19975;-73
2023/08/15 13:42:27;;;;;;;;;;;28.50;75.10;;;;;;5034971;28;19979;-73
2023/08/15 13:44:54;;;;;;;;;;;28.50;74.40;;;;;;5042050;28;19999;-74
2023/08/15 13:47:20;;;;;;;;;;;28.50;73.10;;;;;;5042473;28;19996;-75
2023/08/15 13:49:47;;;;;;;;;;;28.60;73.20;;;;;;5044743;28;19976;-72
2023/08/15 13:52:14;;;;;;;;;;;28.60;73.00;;;;;;5041367;28;19976;-74
2023/08/15 13:54:41;;;;;;;;;;;28.70;72.80;;;;;;5047797;28;19987;-72
2023/08/15 13:57:08;;;;;;;;;;;28.70;72.60;;;;;;5041489;28;19980;-73
2023/08/15 13:59:36;;;;;;;;;;;28.70;71.10;;;;;;5046100;28;20354;-71
2023/08/15 14:02:02;;;;;;;;;;;28.80;71.00;;;;;;5042369;28;20086;-76
2023/08/15 14:04:31;;;;;;;;;;;28.80;70.10;;;;;;5043255;28;19983;-73
2023/08/15 14:06:58;;;;;;;;;;;28.80;69.90;;;;;;5043007;28;19976;-74
2023/08/15 14:09:25;;;;;;;;;;;28.90;69.00;;;;;;5049369;28;19980;-73
2023/08/15 14:11:51;;;;;;;;;;;28.90;68.50;;;;;;5040810;28;19979;-74
2023/08/15 14:14:18;;;;;;;;;;;28.90;68.40;;;;;;5040768;28;19976;-74
2023/08/15 14:16:46;;;;;;;;;;;28.90;68.20;;;;;;5041875;28;20007;-74
2023/08/15 14:19:12;;;;;;;;;;;29.00;68.70;;;;;;5046005;28;20579;-74